Aviation Digital Data Service (ADDS)

Output produced by METARs form (1158 UTC 26 March 2019)
found at http://www.aviationweather.gov/metar/data/
 
TGPY 261000Z 2612/2712 10018KT 9999 SCT017 SCT038 
     BECMG 2622/2624 07008KT SCT019